Time;durP1;ratioP1;P1;durP2;ratioP2;P2;SDS_P1;SDS_P2;PMS_P1;PMS_P2;Temp;Humidity;BMP_temperature;BMP_pressure;BME280_temperature;BME280_humidity;BME280_pressure;Samples;Min_cycle;Max_cycle;Signal;HPM_P1;HPM_P2
2023/04/06 00:01:39;;;;;;;15.17;8.80;;;-0.10;99.90;-1.10;101122;;;;557467;253;24045;-76
2023/04/06 00:04:08;;;;;;;13.03;7.60;;;0.00;99.90;-1.10;101127;;;;557314;253;24071;-76
2023/04/06 00:06:32;;;;;;;16.50;9.30;;;0.00;99.90;-1.10;101122;;;;556844;253;24054;-76
2023/04/06 00:09:04;;;;;;;15.60;8.10;;;-0.10;99.90;-1.10;101126;;;;556665;249;24185;-76
2023/04/06 00:11:29;;;;;;;14.67;8.63;;;-0.10;99.90;-1.10;101121;;;;556794;254;24050;-78
2023/04/06 00:13:57;;;;;;;19.57;7.37;;;-0.10;99.90;-1.20;101130;;;;556855;254;24022;-77
2023/04/06 00:16:25;;;;;;;13.80;7.67;;;-0.10;99.90;-1.20;101119;;;;545889;258;24099;-77
2023/04/06 00:18:53;;;;;;;11.03;7.03;;;-0.20;99.90;-1.30;101116;;;;556577;254;24085;-75
2023/04/06 00:21:22;;;;;;;14.37;7.70;;;-0.30;99.90;-1.30;101116;;;;556558;254;24072;-75
2023/04/06 00:23:51;;;;;;;10.03;6.77;;;-0.30;99.90;-1.40;101119;;;;545673;258;24236;-76
2023/04/06 00:26:21;;;;;;;12.27;7.70;;;-0.30;99.90;-1.40;101103;;;;556592;254;24093;-76
2023/04/06 00:28:46;;;;;;;13.80;6.90;;;-0.40;99.90;-1.50;101108;;;;556454;254;24029;-80
2023/04/06 00:31:14;;;;;;;13.87;6.53;;;-0.40;99.90;-1.50;101104;;;;545547;258;24073;-81
2023/04/06 00:33:42;;;;;;;13.40;7.93;;;-0.40;99.90;-1.60;101105;;;;556707;254;24011;-76
2023/04/06 00:36:10;;;;;;;15.50;8.37;;;-0.50;99.90;-1.60;101116;;;;545365;258;24092;-79
2023/04/06 00:38:38;;;;;;;17.27;7.93;;;-0.50;99.90;-1.60;101106;;;;556360;254;24042;-81
2023/04/06 00:41:06;;;;;;;14.83;7.27;;;-0.60;99.90;-1.60;101109;;;;545537;258;24042;-76
2023/04/06 00:43:34;;;;;;;18.57;9.07;;;-0.60;99.90;-1.60;101112;;;;555995;254;24037;-75
2023/04/06 00:46:02;;;;;;;13.43;7.93;;;-0.60;99.90;-1.60;101108;;;;545480;258;24048;-80
2023/04/06 00:48:31;;;;;;;13.07;7.50;;;-0.60;99.90;-1.60;101116;;;;556414;254;24044;-77
2023/04/06 00:50:58;;;;;;;12.60;7.33;;;-0.60;99.90;-1.60;101107;;;;546773;255;24126;-75
2023/04/06 00:53:26;;;;;;;11.37;7.47;;;-0.60;99.90;-1.70;101107;;;;556451;254;24067;-75
2023/04/06 00:55:54;;;;;;;13.27;8.00;;;-0.60;99.90;-1.80;101100;;;;564834;254;24031;-75
2023/04/06 00:58:21;;;;;;;12.30;7.27;;;-0.70;99.90;-1.90;101102;;;;545730;258;24103;-77
2023/04/06 01:00:49;;;;;;;11.17;6.27;;;-0.80;99.90;-1.90;101093;;;;556561;254;24064;-76
2023/04/06 01:03:20;;;;;;;9.57;5.93;;;-0.90;99.90;-2.00;101103;;;;545782;258;24107;-76
2023/04/06 01:05:45;;;;;;;12.47;6.27;;;-0.80;99.90;-2.00;101090;;;;556062;254;24017;-77
2023/04/06 01:08:13;;;;;;;16.17;7.47;;;-1.00;99.90;-2.10;101088;;;;545308;258;24041;-79
2023/04/06 01:10:41;;;;;;;14.15;8.55;;;-1.00;99.90;-2.20;101102;;;;552583;253;34516;-76
2023/04/06 01:13:09;;;;;;;19.07;8.13;;;-1.10;99.90;-2.30;101088;;;;547473;258;24093;-79
2023/04/06 01:15:38;;;;;;;13.70;8.77;;;-1.20;99.90;-2.40;101089;;;;547712;258;24056;-78
2023/04/06 01:18:06;;;;;;;12.57;7.50;;;-1.30;99.90;-2.50;101088;;;;557086;253;24045;-76
2023/04/06 01:20:34;;;;;;;13.82;8.55;;;-1.40;99.90;-2.50;101091;;;;551893;254;34580;-77
2023/04/06 01:23:02;;;;;;;15.13;7.47;;;-1.40;99.90;-2.50;101090;;;;556846;254;24052;-75
2023/04/06 01:25:30;;;;;;;11.33;6.80;;;-1.40;99.90;-2.60;101087;;;;545735;258;24054;-77
2023/04/06 01:27:57;;;;;;;11.30;6.63;;;-1.40;99.90;-2.60;101081;;;;556896;254;24027;-75
2023/04/06 01:30:26;;;;;;;13.60;6.30;;;-1.40;99.90;-2.60;101076;;;;545532;258;24098;-78
2023/04/06 01:32:53;;;;;;;8.23;6.23;;;-1.50;99.90;-2.60;101076;;;;556924;254;24077;-75
2023/04/06 01:35:21;;;;;;;12.20;6.67;;;-1.50;99.90;-2.70;101086;;;;545619;258;24110;-77
2023/04/06 01:37:49;;;;;;;12.50;7.45;;;-1.50;99.90;-2.70;101076;;;;551776;253;34570;-78
2023/04/06 01:40:17;;;;;;;9.20;5.83;;;-2.20;99.90;-2.70;101067;;;;556703;254;24054;-80
2023/04/06 01:42:45;;;;;;;7.83;5.73;;;-1.60;99.90;-2.70;101074;;;;545568;258;24107;-76
2023/04/06 01:45:13;;;;;;;8.67;5.10;;;-1.60;99.90;-2.80;101072;;;;556814;254;24015;-78
2023/04/06 01:47:41;;;;;;;9.05;6.05;;;-1.70;99.90;-2.80;101081;;;;540695;258;34697;-79
2023/04/06 01:50:12;;;;;;;7.93;5.00;;;-1.60;99.90;-2.80;101072;;;;556225;254;24051;-79
2023/04/06 01:52:37;;;;;;;10.87;5.23;;;-1.60;99.90;-2.80;101069;;;;556285;254;24039;-79
2023/04/06 01:55:05;;;;;;;7.63;4.80;;;-1.70;99.90;-2.80;101085;;;;546794;258;24097;-76
2023/04/06 01:57:34;;;;;;;8.80;5.20;;;-1.60;99.90;-2.80;101079;;;;556045;254;24055;-76
2023/04/06 02:00:01;;;;;;;6.90;5.00;;;-1.60;99.90;-2.80;101080;;;;547227;258;24094;-74
2023/04/06 02:02:29;;;;;;;10.60;5.40;;;-1.60;99.90;-2.70;101072;;;;546719;259;24084;-77
2023/04/06 02:04:57;;;;;;;7.77;4.77;;;-1.60;99.90;-2.70;101074;;;;556735;254;24182;-77
2023/04/06 02:07:25;;;;;;;7.30;5.10;;;-1.60;99.90;-2.70;101072;;;;545651;258;24077;-75
2023/04/06 02:09:53;;;;;;;8.90;5.60;;;-1.60;99.90;-2.70;101066;;;;551882;254;34491;-75
2023/04/06 02:12:21;;;;;;;6.23;5.10;;;-1.60;99.90;-2.80;101078;;;;554933;258;24070;-75
2023/04/06 02:14:49;;;;;;;7.95;5.80;;;-1.60;99.90;-2.70;101089;;;;551962;254;34561;-76
2023/04/06 02:17:17;;;;;;;6.80;4.30;;;-1.60;99.90;-2.80;101079;;;;545670;258;25112;-76
2023/04/06 02:19:45;;;;;;;6.33;4.80;;;-1.60;99.90;-2.80;101080;;;;556748;254;24019;-76
2023/04/06 02:22:17;;;;;;;4.83;4.20;;;-1.60;99.90;-2.80;101081;;;;546490;258;24114;-77
2023/04/06 02:24:41;;;;;;;6.00;4.77;;;-1.60;99.90;-2.80;101075;;;;557083;253;25095;-77
2023/04/06 02:27:10;;;;;;;7.90;4.47;;;-1.60;99.90;-2.80;101077;;;;546199;258;24036;-75
2023/04/06 02:29:37;;;;;;;9.70;5.37;;;-1.60;99.90;-2.70;101085;;;;552080;253;34696;-75
2023/04/06 02:32:05;;;;;;;10.00;4.97;;;-1.60;99.90;-2.80;101085;;;;546195;258;24046;-75
2023/04/06 02:34:33;;;;;;;9.67;5.33;;;-1.60;99.90;-2.80;101083;;;;556864;254;24054;-76
2023/04/06 02:37:01;;;;;;;8.17;4.27;;;-1.60;99.90;-2.80;101083;;;;545628;258;24074;-76
2023/04/06 02:39:29;;;;;;;8.70;4.77;;;-1.60;99.90;-2.80;101073;;;;556663;254;24024;-76
2023/04/06 02:41:57;;;;;;;7.17;4.60;;;-1.60;99.90;-2.70;101084;;;;545511;258;24040;-77
2023/04/06 02:44:24;;;;;;;6.57;4.33;;;-1.60;99.90;-2.70;101081;;;;556700;254;24055;-75
2023/04/06 02:46:52;;;;;;;5.83;4.07;;;-1.60;99.90;-2.70;101084;;;;545495;258;24094;-78
2023/04/06 02:49:20;;;;;;;7.63;5.07;;;-1.60;99.90;-2.70;101085;;;;556491;254;24008;-75
2023/04/06 02:51:48;;;;;;;9.93;5.10;;;-1.60;99.90;-2.70;101085;;;;545576;258;24065;-80
2023/04/06 02:54:16;;;;;;;5.80;4.67;;;-1.50;99.90;-2.70;101081;;;;556249;254;24080;-76
2023/04/06 02:56:44;;;;;;;10.40;5.20;;;-1.50;99.90;-2.70;101084;;;;545643;258;24085;-75
2023/04/06 02:59:12;;;;;;;8.17;5.27;;;-1.50;99.90;-2.70;101089;;;;556366;254;24025;-78
2023/04/06 03:01:40;;;;;;;7.00;5.30;;;-1.50;99.90;-2.60;101089;;;;545683;258;24048;-77
2023/04/06 03:04:08;;;;;;;5.03;4.33;;;-1.50;99.90;-2.60;101088;;;;556765;254;24128;-75
2023/04/06 03:06:37;;;;;;;10.07;4.87;;;-1.50;99.90;-2.70;101079;;;;545727;258;25102;-76
2023/04/06 03:09:06;;;;;;;7.03;4.90;;;-1.50;99.90;-2.70;101078;;;;556750;254;24131;-75
2023/04/06 03:11:34;;;;;;;11.93;4.90;;;-1.60;99.90;-2.80;101093;;;;547188;256;24055;-76
2023/04/06 03:14:02;;;;;;;6.97;4.43;;;-1.60;99.90;-2.90;101075;;;;556784;254;24082;-79
2023/04/06 03:16:30;;;;;;;9.57;4.80;;;-1.70;99.90;-3.00;101083;;;;545733;258;24077;-77
2023/04/06 03:18:57;;;;;;;8.40;5.17;;;-1.80;99.90;-3.10;101077;;;;556770;254;24076;-78
2023/04/06 03:21:25;;;;;;;11.37;5.90;;;-1.90;99.90;-3.20;101080;;;;545673;258;25067;-80
2023/04/06 03:23:53;;;;;;;11.03;5.57;;;-2.00;99.90;-3.30;101085;;;;556812;254;24013;-78
2023/04/06 03:26:22;;;;;;;9.33;6.30;;;-2.10;99.90;-3.40;101079;;;;556530;254;24158;-80
2023/04/06 03:28:49;;;;;;;11.97;6.37;;;-2.20;99.90;-3.40;101081;;;;546763;258;24109;-76
2023/04/06 03:31:17;;;;;;;13.60;7.30;;;-2.30;99.90;-3.40;101077;;;;556780;254;24018;-77
2023/04/06 03:33:45;;;;;;;15.67;7.77;;;-2.30;99.90;-3.50;101083;;;;546382;258;24086;-76
2023/04/06 03:36:13;;;;;;;8.17;5.77;;;-2.30;99.90;-3.50;101091;;;;557701;253;24093;-76
2023/04/06 03:38:41;;;;;;;10.97;7.87;;;-2.30;99.90;-3.50;101085;;;;546145;258;24065;-75
2023/04/06 03:41:09;;;;;;;13.27;8.10;;;-2.40;99.90;-3.50;101090;;;;557178;253;24061;-75
2023/04/06 03:43:37;;;;;;;10.70;7.30;;;-2.40;99.90;-3.60;101091;;;;545928;258;24130;-79
2023/04/06 03:46:05;;;;;;;13.47;7.23;;;-2.40;99.90;-3.60;101101;;;;556899;254;24102;-79
2023/04/06 03:48:33;;;;;;;12.17;8.73;;;-2.40;99.90;-3.70;101105;;;;545724;258;24134;-77
2023/04/06 03:51:00;;;;;;;14.57;9.00;;;-2.50;99.90;-3.70;101094;;;;556961;254;24020;-78
2023/04/06 03:53:28;;;;;;;13.93;8.33;;;-2.50;99.90;-3.70;101107;;;;545832;258;24151;-80
2023/04/06 03:55:56;;;;;;;17.90;10.10;;;-2.50;99.90;-3.70;101110;;;;556788;254;24033;-80
2023/04/06 03:58:24;;;;;;;15.97;10.50;;;-2.60;99.90;-3.70;101111;;;;547052;256;24052;-81
2023/04/06 04:00:55;;;;;;;17.13;11.77;;;-2.60;99.90;-3.80;101108;;;;546885;258;24075;-81
2023/04/06 04:03:23;;;;;;;17.57;12.13;;;-2.60;99.90;-3.80;101124;;;;556738;254;24093;-80
2023/04/06 04:05:48;;;;;;;18.10;11.47;;;-2.60;99.90;-3.80;101121;;;;556898;254;24072;-80
2023/04/06 04:08:16;;;;;;;17.00;11.97;;;-2.60;99.90;-3.80;101115;;;;547466;257;24088;-79
2023/04/06 04:10:45;;;;;;;15.93;10.07;;;-2.60;99.90;-3.80;101127;;;;546736;259;24078;-81
2023/04/06 04:13:13;;;;;;;17.70;11.17;;;-2.70;99.90;-3.80;101118;;;;556777;254;24022;-80
2023/04/06 04:15:41;;;;;;;17.40;10.63;;;-2.70;99.90;-3.90;101113;;;;547325;255;24091;-79
2023/04/06 04:18:09;;;;;;;17.83;11.90;;;-2.70;99.90;-3.90;101115;;;;546894;259;24063;-79
2023/04/06 04:20:37;;;;;;;25.43;11.30;;;-2.70;99.90;-3.90;101114;;;;556784;254;24033;-80
2023/04/06 04:23:05;;;;;;;20.80;12.17;;;-2.70;99.90;-3.90;101111;;;;547129;257;24128;-82
2023/04/06 04:25:33;;;;;;;20.13;11.80;;;-2.80;99.90;-3.90;101109;;;;546656;259;25100;-82
2023/04/06 04:28:02;;;;;;;28.37;15.40;;;-2.70;99.90;-3.80;101117;;;;556535;254;24013;-81
2023/04/06 04:30:30;;;;;;;29.50;13.33;;;-2.60;99.90;-3.70;101110;;;;556740;254;24099;-81
2023/04/06 04:33:03;;;;;;;27.97;17.00;;;-2.60;99.90;-3.70;101106;;;;546863;258;24146;-80
2023/04/06 04:35:28;;;;;;;28.07;15.73;;;-2.50;99.90;-3.60;101125;;;;546449;258;24115;-79
2023/04/06 04:37:56;;;;;;;30.63;17.97;;;-2.40;99.90;-3.50;101117;;;;546499;259;24092;-75
2023/04/06 04:40:25;;;;;;;40.07;18.40;;;-2.40;99.90;-3.40;101105;;;;556408;254;25119;-76
2023/04/06 04:42:54;;;;;;;33.47;17.73;;;-2.20;99.90;-3.40;101117;;;;546947;257;24145;-75
2023/04/06 04:45:22;;;;;;;39.07;18.63;;;-2.30;99.90;-3.20;101119;;;;547293;258;24076;-82
2023/04/06 04:47:50;;;;;;;37.20;18.17;;;-2.20;99.90;-3.20;101122;;;;557605;253;24039;-79
2023/04/06 04:50:18;;;;;;;36.20;18.60;;;-2.10;99.90;-3.00;101119;;;;547698;256;24056;-81
2023/04/06 04:52:45;;;;;;;31.67;17.23;;;-2.00;99.90;-2.90;101116;;;;547015;258;24114;-81
2023/04/06 04:55:13;;;;;;;36.33;17.87;;;-1.90;99.90;-2.80;101126;;;;557002;254;24067;-81
2023/04/06 04:57:41;;;;;;;27.90;16.83;;;-1.70;99.90;-2.70;101123;;;;547292;257;24075;-78
2023/04/06 05:00:09;;;;;;;43.83;19.47;;;-1.60;99.90;-2.50;101125;;;;547023;258;24049;-77
2023/04/06 05:02:41;;;;;;;196.50;57.97;;;-1.50;99.90;-2.40;101132;;;;556822;254;24085;-79
2023/04/06 05:05:05;;;;;;;230.77;71.93;;;-1.30;99.90;-2.20;101132;;;;547093;258;24065;-76
2023/04/06 05:07:34;;;;;;;233.27;65.90;;;-1.00;99.90;-2.00;101130;;;;556984;254;25084;-76
2023/04/06 05:10:03;;;;;;;200.13;61.63;;;-0.60;99.90;-1.50;101126;;;;557094;253;24019;-78
2023/04/06 05:12:31;;;;;;;212.17;65.47;;;-0.60;99.90;-0.20;101137;;;;556968;254;24086;-75
2023/04/06 05:14:59;;;;;;;157.53;42.20;;;0.50;99.90;1.50;101144;;;;557052;254;24030;-76
2023/04/06 05:17:26;;;;;;;150.13;36.93;;;2.10;99.90;3.10;101151;;;;556896;254;24053;-77
2023/04/06 05:19:58;;;;;;;143.87;37.43;;;3.70;99.90;4.50;101162;;;;556991;254;24090;-76
2023/04/06 05:22:22;;;;;;;153.03;40.37;;;5.20;99.90;6.00;101161;;;;556408;254;24047;-77
2023/04/06 05:24:50;;;;;;;130.90;35.70;;;6.60;99.90;7.20;101167;;;;556737;254;24073;-76
2023/04/06 05:27:18;;;;;;;134.97;35.57;;;7.90;99.90;8.20;101171;;;;556814;254;24070;-77
2023/04/06 05:29:47;;;;;;;121.33;37.30;;;10.00;99.90;9.30;101176;;;;556493;254;24044;-77
2023/04/06 05:32:15;;;;;;;148.77;44.20;;;10.70;99.90;9.90;101171;;;;556395;254;24020;-75
2023/04/06 05:34:44;;;;;;;133.20;39.83;;;10.90;99.90;10.00;101177;;;;556318;254;24020;-76
2023/04/06 05:37:12;;;;;;;90.60;32.37;;;10.80;99.90;10.20;101171;;;;556402;254;24039;-78
2023/04/06 05:39:40;;;;;;;92.93;31.67;;;11.10;99.90;11.00;101169;;;;556299;254;24017;-77
2023/04/06 05:42:08;;;;;;;58.93;21.67;;;11.70;99.90;12.10;101169;;;;556395;254;24048;-78
2023/04/06 05:44:36;;;;;;;58.40;22.83;;;12.70;97.90;13.40;101178;;;;556331;254;24037;-78
2023/04/06 05:47:04;;;;;;;49.07;21.67;;;13.90;92.80;14.60;101165;;;;556715;254;24089;-76
2023/04/06 05:49:32;;;;;;;49.50;22.23;;;15.20;85.10;15.70;101176;;;;556389;254;24023;-79
2023/04/06 05:52:00;;;;;;;52.80;23.07;;;16.40;76.50;16.90;101178;;;;556387;254;24029;-76
2023/04/06 05:54:28;;;;;;;50.47;22.17;;;17.50;69.90;18.00;101180;;;;556337;254;24056;-77
2023/04/06 05:56:55;;;;;;;43.73;20.77;;;18.60;67.50;18.70;101185;;;;557266;253;24015;-77
2023/04/06 05:59:23;;;;;;;33.50;19.20;;;19.40;62.30;19.20;101183;;;;557543;253;24103;-76
2023/04/06 06:01:51;;;;;;;34.67;17.30;;;19.90;58.20;19.90;101187;;;;557282;253;24120;-78
2023/04/06 06:04:19;;;;;;;34.20;16.97;;;20.60;55.80;20.80;101191;;;;557003;253;24106;-78
2023/04/06 06:06:47;;;;;;;34.10;17.37;;;21.40;54.30;21.50;101192;;;;557259;254;24012;-76
2023/04/06 06:09:16;;;;;;;32.47;18.23;;;23.00;49.20;22.40;101200;;;;557315;253;24034;-77
2023/04/06 06:11:45;;;;;;;26.43;15.13;;;23.80;48.20;23.20;101198;;;;557273;254;24067;-76
2023/04/06 06:14:13;;;;;;;27.10;14.53;;;24.40;45.60;23.70;101204;;;;557251;254;23067;-76
2023/04/06 06:16:42;;;;;;;19.03;8.43;;;25.10;44.60;24.50;101204;;;;557058;254;25104;-77
2023/04/06 06:19:11;;;;;;;14.37;6.17;;;25.60;42.80;24.90;101200;;;;556586;254;23077;-76
2023/04/06 06:21:39;;;;;;;9.73;5.70;;;26.00;42.00;25.30;101215;;;;556548;254;24031;-79
2023/04/06 06:24:11;;;;;;;8.67;5.40;;;26.00;41.90;25.70;101216;;;;556557;254;24059;-78
2023/04/06 06:26:36;;;;;;;6.90;5.40;;;26.50;41.30;26.00;101215;;;;547309;258;23065;-78
2023/04/06 06:29:05;;;;;;;7.07;4.65;;;27.20;40.70;26.60;101215;;;;556908;254;24065;-78
2023/04/06 06:31:35;;;;;;;4.50;3.40;;;27.20;40.10;26.70;101212;;;;547096;258;24101;-78
2023/04/06 06:34:00;;;;;;;5.03;2.50;;;27.40;39.50;26.60;101211;;;;555974;254;23092;-79
2023/04/06 06:36:27;;;;;;;3.58;2.85;;;27.40;39.30;26.80;101214;;;;556499;254;23046;-77
2023/04/06 06:38:55;;;;;;;2.92;2.60;;;27.50;39.40;27.00;101220;;;;554731;254;24076;-77
2023/04/06 06:41:23;;;;;;;7.12;2.97;;;27.60;39.30;26.80;101221;;;;556568;254;23041;-78
2023/04/06 06:43:54;;;;;;;4.83;3.53;;;27.60;38.50;26.20;101225;;;;545342;258;23051;-77
2023/04/06 06:46:20;;;;;;;4.30;2.90;;;26.60;39.00;25.70;101218;;;;556230;254;23047;-78
2023/04/06 06:48:51;;;;;;;4.80;3.07;;;26.70;39.10;25.10;101221;;;;544981;259;24203;-77
2023/04/06 06:51:16;;;;;;;5.13;3.93;;;26.10;39.00;24.30;101225;;;;556262;254;24124;-77
2023/04/06 06:53:44;;;;;;;7.03;3.10;;;25.30;40.00;23.40;101229;;;;556039;254;23047;-77
2023/04/06 06:56:12;;;;;;;3.33;2.60;;;24.50;41.30;21.30;101226;;;;555995;254;23072;-78
2023/04/06 06:58:40;;;;;;;4.80;2.70;;;22.90;42.70;20.20;101222;;;;555930;254;24021;-79
2023/04/06 07:01:07;;;;;;;3.57;3.20;;;21.60;44.90;20.50;101224;;;;555927;254;24017;-77
2023/04/06 07:03:35;;;;;;;6.47;3.10;;;21.20;46.30;21.70;101218;;;;555861;254;24050;-78
2023/04/06 07:06:03;;;;;;;3.87;3.27;;;22.00;46.00;22.60;101230;;;;556070;254;24027;-76
2023/04/06 07:08:31;;;;;;;4.97;3.23;;;22.90;44.70;22.50;101225;;;;557615;253;24044;-76
2023/04/06 07:10:59;;;;;;;2.37;2.27;;;23.30;43.70;22.60;101232;;;;557469;253;24016;-79
2023/04/06 07:13:27;;;;;;;6.43;3.00;;;23.30;44.20;23.60;101226;;;;557105;253;24033;-78
2023/04/06 07:15:55;;;;;;;10.07;8.13;;;24.00;44.00;24.60;101230;;;;557051;253;24062;-80
2023/04/06 07:18:23;;;;;;;10.70;8.07;;;24.90;42.40;25.70;101233;;;;556839;254;23055;-78
2023/04/06 07:20:51;;;;;;;6.00;4.87;;;26.00;41.00;26.70;101238;;;;556830;254;23139;-78
2023/04/06 07:23:19;;;;;;;7.60;6.15;;;27.00;40.20;27.70;101238;;;;556792;254;23018;-78
2023/04/06 07:25:47;;;;;;;8.82;7.10;;;28.10;38.40;27.50;101242;;;;556731;254;24057;-76
2023/04/06 07:28:15;;;;;;;7.32;5.40;;;28.50;37.50;27.80;101237;;;;556565;254;23041;-77
2023/04/06 07:30:42;;;;;;;9.07;6.47;;;28.60;37.30;28.50;101239;;;;556461;254;23041;-76
2023/04/06 07:33:10;;;;;;;7.93;6.47;;;29.10;36.90;29.30;101244;;;;556195;254;23081;-78
2023/04/06 07:35:39;;;;;;;9.13;5.55;;;29.90;36.60;30.00;101241;;;;556185;254;23077;-77
2023/04/06 07:38:06;;;;;;;9.23;5.70;;;30.60;36.00;29.40;101255;;;;556047;254;24053;-79
2023/04/06 07:40:34;;;;;;;6.25;4.70;;;30.60;35.20;27.80;101240;;;;556283;250;23070;-78
2023/04/06 07:43:02;;;;;;;6.80;4.53;;;29.30;35.60;28.40;101247;;;;556212;254;23073;-78
2023/04/06 07:45:31;;;;;;;7.75;4.72;;;29.30;35.80;29.30;101247;;;;564775;254;24067;-80
2023/04/06 07:47:58;;;;;;;6.53;4.47;;;29.80;36.20;30.00;101254;;;;556400;254;23037;-78
2023/04/06 07:50:27;;;;;;;6.20;4.25;;;30.50;34.90;30.30;101256;;;;556246;254;23087;-78
2023/04/06 07:52:55;;;;;;;6.30;4.80;;;30.90;35.20;29.80;101254;;;;545580;258;23048;-77
2023/04/06 07:55:26;;;;;;;6.12;4.20;;;30.70;35.00;29.70;101256;;;;556858;254;23049;-80
2023/04/06 07:57:54;;;;;;;5.32;4.45;;;30.40;35.40;29.00;101259;;;;545569;258;24062;-78
2023/04/06 08:00:22;;;;;;;8.10;4.05;;;30.00;34.50;26.40;101257;;;;556399;254;23105;-77
2023/04/06 08:02:50;;;;;;;6.20;4.95;;;28.20;36.00;23.30;101254;;;;546789;258;24075;-79
2023/04/06 08:05:21;;;;;;;5.17;4.63;;;25.80;37.80;21.00;101249;;;;556354;254;24026;-77
2023/04/06 08:07:45;;;;;;;8.27;4.80;;;23.20;40.90;19.00;101253;;;;556229;254;24058;-79
2023/04/06 08:10:13;;;;;;;7.07;3.97;;;21.00;43.70;17.30;101236;;;;545665;258;24049;-77
2023/04/06 08:12:41;;;;;;;12.63;4.20;;;19.00;46.20;15.90;101234;;;;556699;254;24061;-76
2023/04/06 08:15:10;;;;;;;8.33;3.70;;;16.20;51.30;15.00;101228;;;;545711;258;24067;-77
2023/04/06 08:17:38;;;;;;;9.13;4.33;;;16.00;51.20;15.00;101237;;;;556847;254;24074;-76
2023/04/06 08:20:09;;;;;;;5.03;3.50;;;15.70;52.50;14.80;101232;;;;546538;258;24078;-77
2023/04/06 08:22:34;;;;;;;5.57;4.07;;;15.60;53.40;14.10;101229;;;;547375;254;24066;-77
2023/04/06 08:25:02;;;;;;;8.20;4.13;;;15.00;53.80;15.00;101226;;;;557573;253;24016;-76
2023/04/06 08:27:30;;;;;;;9.13;4.17;;;15.30;55.50;17.30;101242;;;;546361;258;24084;-79
2023/04/06 08:29:58;;;;;;;6.13;4.40;;;17.20;53.10;17.20;101248;;;;557241;254;24003;-78
2023/04/06 08:32:26;;;;;;;5.93;4.03;;;18.10;49.10;17.20;101237;;;;557265;254;24035;-76
2023/04/06 08:34:57;;;;;;;5.27;3.13;;;18.00;49.10;18.50;101229;;;;556937;254;24046;-77
2023/04/06 08:37:26;;;;;;;7.90;3.57;;;20.10;46.50;19.50;101238;;;;556808;254;24060;-78
2023/04/06 08:39:54;;;;;;;9.43;4.07;;;20.10;46.50;19.70;101239;;;;556623;254;24025;-77
2023/04/06 08:42:21;;;;;;;5.23;3.20;;;20.70;46.00;19.90;101241;;;;545597;258;23077;-77
2023/04/06 08:44:51;;;;;;;5.60;3.17;;;20.90;45.50;19.30;101241;;;;556887;254;23041;-76
2023/04/06 08:47:17;;;;;;;3.80;2.57;;;20.50;45.30;18.40;101239;;;;565171;254;24050;-77
2023/04/06 08:49:49;;;;;;;3.50;2.47;;;19.70;45.60;17.50;101246;;;;547085;258;24109;-77
2023/04/06 08:52:13;;;;;;;3.43;3.00;;;18.70;47.40;18.90;101233;;;;555109;258;24143;-78
2023/04/06 08:54:41;;;;;;;5.17;2.73;;;19.30;48.10;20.10;101239;;;;556602;254;24032;-77
2023/04/06 08:57:09;;;;;;;3.80;3.13;;;20.50;45.90;20.20;101248;;;;545419;254;24025;-79
2023/04/06 08:59:37;;;;;;;3.60;2.50;;;20.90;45.00;19.40;101241;;;;556208;254;24032;-77
2023/04/06 09:02:08;;;;;;;2.53;2.33;;;20.50;45.10;19.10;101232;;;;565083;254;23061;-77
2023/04/06 09:04:35;;;;;;;3.50;2.00;;;20.00;46.10;19.90;101240;;;;547150;258;24054;-77
2023/04/06 09:07:04;;;;;;;2.37;2.00;;;20.70;44.80;19.90;101237;;;;559854;253;24072;-77
2023/04/06 09:09:33;;;;;;;4.13;2.40;;;21.00;45.70;20.20;101232;;;;556756;250;24061;-78
2023/04/06 09:12:05;;;;;;;3.03;2.83;;;20.90;45.00;22.00;101242;;;;545290;258;24097;-78
2023/04/06 09:14:38;;;;;;;2.27;2.03;;;22.30;44.40;22.70;101241;;;;556230;254;24019;-77
2023/04/06 09:17:06;;;;;;;5.20;2.50;;;23.60;42.20;21.70;101242;;;;546356;259;24057;-80
2023/04/06 09:19:34;;;;;;;2.57;2.37;;;23.40;41.00;20.00;101235;;;;556562;254;24047;-80
2023/04/06 09:22:07;;;;;;;5.47;2.33;;;21.80;43.60;20.60;101231;;;;556418;253;24017;-82
2023/04/06 09:24:45;;;;;;;2.73;1.80;;;21.80;43.50;21.10;101234;;;;547170;258;24049;-79
2023/04/06 09:27:13;;;;;;;3.90;2.77;;;22.30;42.50;21.10;101244;;;;556406;254;24017;-77
2023/04/06 09:29:41;;;;;;;3.73;3.17;;;22.50;42.30;21.00;101230;;;;556447;254;24039;-79
2023/04/06 09:32:16;;;;;;;3.17;2.67;;;22.30;42.60;21.20;101228;;;;547928;258;24053;-80
2023/04/06 09:34:43;;;;;;;2.67;2.13;;;22.50;41.10;21.10;101236;;;;557120;253;24057;-78
2023/04/06 09:37:17;;;;;;;2.60;2.30;;;22.50;42.00;22.10;101230;;;;557084;253;24042;-78
2023/04/06 09:39:44;;;;;;;3.77;2.30;;;23.20;41.20;22.80;101232;;;;550007;257;24080;-77
2023/04/06 09:42:12;;;;;;;4.47;2.03;;;24.20;39.80;23.00;101235;;;;545942;258;23188;-79
2023/04/06 09:44:40;;;;;;;2.93;2.57;;;24.60;39.80;23.30;101247;;;;555619;254;23059;-80
2023/04/06 09:47:14;;;;;;;3.53;2.13;;;24.80;39.40;23.40;101232;;;;545941;258;24025;-79
2023/04/06 09:49:42;;;;;;;12.53;2.30;;;25.00;39.30;23.10;101246;;;;547054;258;24074;-78
2023/04/06 09:52:07;;;;;;;7.13;2.73;;;25.00;38.60;22.30;101241;;;;554453;258;23166;-76
2023/04/06 09:54:35;;;;;;;1.80;1.70;;;24.20;39.30;20.80;101236;;;;556698;254;24043;-78
2023/04/06 09:57:12;;;;;;;2.87;2.30;;;23.10;39.80;19.70;101238;;;;564832;254;24044;-76
2023/04/06 10:00:17;;;;;;;4.40;1.90;;;21.80;41.60;18.50;101239;;;;545900;258;24150;-78
2023/04/06 10:03:03;;;;;;;4.30;1.90;;;18.90;46.10;17.20;101238;;;;563527;254;24031;-78
2023/04/06 10:05:58;;;;;;;3.80;2.28;;;18.90;46.40;16.00;101238;;;;552254;254;34574;-78
2023/04/06 10:08:23;;;;;;;2.80;1.90;;;17.60;48.30;15.40;101222;;;;557282;254;24127;-76
2023/04/06 10:10:51;;;;;;;5.57;2.00;;;16.60;50.00;14.90;101226;;;;556798;254;24009;-78
2023/04/06 10:13:19;;;;;;;1.93;1.73;;;16.00;51.40;14.30;101219;;;;556521;254;24043;-78
2023/04/06 10:15:47;;;;;;;13.67;2.20;;;15.50;52.90;13.30;101220;;;;556609;254;24047;-77
2023/04/06 10:18:15;;;;;;;1.63;1.40;;;14.70;54.40;12.90;101224;;;;556381;254;24021;-77
2023/04/06 10:20:58;;;;;;;2.07;1.60;;;14.00;55.80;12.30;101234;;;;556510;254;24021;-79
2023/04/06 10:23:53;;;;;;;1.93;1.40;;;13.40;57.50;11.50;101208;;;;554272;254;24092;-80
2023/04/06 10:26:21;;;;;;;3.13;1.40;;;12.80;59.20;11.20;101227;;;;546910;258;24062;-79
2023/04/06 10:28:49;;;;;;;9.63;1.30;;;12.30;61.10;10.90;101208;;;;556894;254;24069;-77
2023/04/06 10:31:17;;;;;;;1.83;1.30;;;11.90;60.70;10.70;101225;;;;546927;258;24051;-80
2023/04/06 10:33:45;;;;;;;2.23;1.67;;;11.70;61.70;10.50;101222;;;;555364;254;24035;-77
2023/04/06 10:36:19;;;;;;;1.57;1.47;;;11.40;62.60;10.30;101215;;;;545648;258;24078;-76
2023/04/06 10:38:44;;;;;;;2.17;1.37;;;11.20;62.90;10.20;101221;;;;546655;258;24059;-77
2023/04/06 10:41:11;;;;;;;3.80;1.70;;;11.10;63.40;10.00;101215;;;;556717;254;24012;-79
2023/04/06 10:43:39;;;;;;;1.47;1.37;;;11.00;63.80;9.70;101213;;;;557760;253;24018;-78
2023/04/06 10:46:11;;;;;;;4.13;1.13;;;10.70;64.70;9.60;101208;;;;557555;253;24040;-76
2023/04/06 10:48:51;;;;;;;3.47;1.40;;;10.60;65.60;9.40;101208;;;;548054;257;24040;-82
2023/04/06 10:51:15;;;;;;;2.20;1.40;;;10.40;65.90;9.20;101211;;;;557183;253;24043;-75
2023/04/06 10:53:43;;;;;;;1.80;1.33;;;10.20;66.70;9.00;101214;;;;557444;254;24019;-75
2023/04/06 10:56:14;;;;;;;5.37;1.27;;;9.90;67.10;9.00;101208;;;;557472;254;24015;-76
2023/04/06 10:58:39;;;;;;;10.17;1.83;;;9.80;68.60;9.10;101211;;;;556835;254;24023;-79
2023/04/06 11:01:07;;;;;;;0.83;0.77;;;9.90;68.80;9.10;101206;;;;556513;254;24059;-77
2023/04/06 11:03:35;;;;;;;2.17;1.10;;;9.90;69.00;9.00;101214;;;;556991;254;24023;-79
2023/04/06 11:06:03;;;;;;;1.10;1.10;;;9.90;68.20;8.90;101202;;;;546543;258;24078;-77
2023/04/06 11:08:31;;;;;;;1.43;1.30;;;9.70;69.30;8.70;101200;;;;547242;258;24065;-78
2023/04/06 11:11:18;;;;;;;9.73;1.47;;;9.70;69.80;8.70;101189;;;;547348;258;24045;-78